Edinburgh, Verenigd Koninkrijk

8:01 AM BST op 25 oktober 2014 (GMT +0100)
Edinburgh Airport | Change Station
CLOSE
Current Station
Luchthaven
Location: Edinburgh Airport,
Geometrische hoogte: 135 ft
Nabije weerstations

Hoogte 135 ft 55.95 °N, 3.35 °W | Updated 11 minutes ago

Clear
Helder
50 °F
Voelt als 50 °F
N
15
Wind Variabel Wind van ZZW

Vandaag
Hoog -- | Laag -- °F
--% Kans op neerslag
Gisteren
Hoog -- | Laag -- °F
Precip. -- inches
8:05 AM 5:48 PM
Nieuwe maan, 2% visible
Druk 29.65 inches
Zicht -9999.0 mijlen
Wolken
Dauwpunt 45 °F
Vochtigheid 82%
Neerslag 0.00 inches
Dikte sneeuw Niet beschikbaar.
UV Niet beschikbaar.
Pollen Niet beschikbaar.
Luchtkwaliteit Niet beschikbaar.
Flu Activity Niet beschikbaar.
METAR EGPH 250650Z 21013KT CAVOK 10/07 Q1004

More Conditions Fewer Conditions

Druk 29.65 inches
Zicht -9999.0 mijlen
Wolken
Dauwpunt 45 °F
Vochtigheid 82%
Neerslag 0.00 inches
Dikte sneeuw Niet beschikbaar.
UV Niet beschikbaar.
Pollen Niet beschikbaar.
Luchtkwaliteit Niet beschikbaar.
Flu Activity Niet beschikbaar.
METAR EGPH 250650Z 21013KT CAVOK 10/07 Q1004

More Conditions Fewer Conditions

10-Day Weather Forecast

Almanac

Astronomie

Oct. 25, 2014 Opkomst Ondergang
Werkelijke tijd 8:05 AM BST 5:48 PM BST
Burgerlijke schemering 7:26 AM BST 6:27 PM BST
Nautische schemering 6:42 AM BST 7:10 PM BST
Astronomische schemering 6:00 AM BST 7:53 PM BST
Maan 9:42 AM BST 6:46 PM BST
Golflengte van het zichtbare licht 11h 01m
Daglengte
9h 43m
Tomorrow will be 4m 26s shorter.
Nieuwe maan, 2% of the Moon is Illuminated
Vandaag
Nieuwe maan
oktober 30
Eerste kwartier
nov 6
Volle maan
nov 14
Laatste kwartier
nov 22
Nieuw

Extremen gisteren

Country Highs Country Lows

Community

WunderPhotos

Upload Photos

1,764,789 foto’s ge-upload!

Nearby

Luchtkwaliteit

Not available.

Dikte sneeuw

Not available.

Aardbevingen

Stad Distance Mag. Time & Date
No recent earthquake activity has been reported nearby.
Minimum magnitude displayed is 2.5.

Watertemperatuur langs de kust

Plaats Temperatuur
Geen meldingen van stations

Nabije weerstations